San Luis Rey, California
Current Conditions -  °F | °C
As of 8:52 PM on Sunday 19 Oct 2014 (Local Time) from KOKB Reporting Station
Broken Clouds Broken Clouds  
Wind Chill: 66°   Ceiling: 1500
Heat Index: 66°   Visibility: 10mi
Dew Point: 59°   Wind: 0mph
Humidity: 78%   Direction: NA
Pressure: 29.87"   Gusts: NA
Location:  33.23°N, 117.33°W
Report Text: KOKB 200352Z AUTO 00000KT 10SM BKN015 19/15 A2987 RMK AO2 SLP115 T01890150
Loading
Personal Weather Stations






























Interactive Weather Map
Tropical Storm Tracking
New forecast layout! Learn more

10-Day Weather Forecast

Advertisements
Track Severe Weather on mobile